Time;durP1;ratioP1;P1;durP2;ratioP2;P2;SDS_P1;SDS_P2;PMS_P1;PMS_P2;Temp;Humidity;BMP_temperature;BMP_pressure;BME280_temperature;BME280_humidity;BME280_pressure;Samples;Min_cycle;Max_cycle;Signal;HPM_P1;HPM_P2
2022/07/21 00:02:36;;;;;;;18.00;16.40;;;;;;;25.21;64.79;99025.69;7004452;28;20236;-79
2022/07/21 00:05:57;;;;;;;18.97;17.27;;;;;;;25.24;64.72;99027.91;7003096;28;20272;-78
2022/07/21 00:09:19;;;;;;;19.80;17.93;;;;;;;25.06;65.04;99017.56;7003216;28;20190;-79
2022/07/21 00:12:42;;;;;;;16.97;15.47;;;;;;;25.58;64.00;99006.44;7003859;28;20282;-78
2022/07/21 00:16:05;;;;;;;19.33;17.50;;;;;;;25.50;64.19;99015.41;7003813;28;20228;-79
2022/07/21 00:19:26;;;;;;;20.33;16.97;;;;;;;25.37;64.21;99036.25;7003213;28;20283;-79
2022/07/21 00:22:48;;;;;;;18.57;16.73;;;;;;;25.56;63.15;99033.53;7003871;28;20261;-79
2022/07/21 00:26:09;;;;;;;19.13;17.33;;;;;;;25.21;62.60;99051.34;7003518;28;20289;-78
2022/07/21 00:29:32;;;;;;;19.90;17.80;;;;;;;24.46;64.44;99029.19;7003415;28;20209;-79
2022/07/21 00:32:54;;;;;;;17.40;15.80;;;;;;;24.70;65.13;99054.91;7003626;28;20338;-79
2022/07/21 00:36:15;;;;;;;18.50;16.60;;;;;;;24.87;65.04;99045.09;7003869;28;20237;-78
2022/07/21 00:39:37;;;;;;;15.43;13.70;;;;;;;25.19;63.20;99070.13;7003164;28;20226;-79
2022/07/21 00:42:59;;;;;;;16.60;15.10;;;;;;;25.09;62.59;99047.34;7003169;28;20252;-79
2022/07/21 00:46:22;;;;;;;17.07;15.50;;;;;;;25.11;63.70;99061.66;7003444;28;20856;-78
2022/07/21 00:49:44;;;;;;;16.73;15.07;;;;;;;25.27;62.98;99052.13;7007083;28;20212;-79
2022/07/21 00:53:06;;;;;;;17.73;15.93;;;;;;;25.00;63.44;99030.59;7008878;28;20269;-78
2022/07/21 00:56:27;;;;;;;20.50;17.60;;;;;;;24.82;64.66;99027.75;7008869;28;20714;-79
2022/07/21 00:59:49;;;;;;;17.97;16.07;;;;;;;25.08;64.11;99010.63;7011422;28;20316;-78
2022/07/21 01:03:12;;;;;;;20.87;18.97;;;;;;;24.80;65.31;99032.75;7007321;28;20275;-79
2022/07/21 01:06:34;;;;;;;20.13;18.33;;;;;;;24.89;65.33;99036.53;7009132;28;20253;-78
2022/07/21 01:09:57;;;;;;;19.57;17.67;;;;;;;25.12;64.09;99024.69;7008484;28;20624;-78
2022/07/21 01:13:18;;;;;;;19.67;16.97;;;;;;;24.75;64.57;99022.59;7008704;28;20268;-79
2022/07/21 01:16:41;;;;;;;18.53;16.73;;;;;;;25.21;64.53;99031.19;7009046;28;20222;-79
2022/07/21 01:20:06;;;;;;;15.63;14.33;;;;;;;25.48;63.57;99051.59;7008474;28;20313;-79
2022/07/21 01:23:29;;;;;;;17.87;16.17;;;;;;;25.43;62.60;99037.03;7009365;28;20740;-78
2022/07/21 01:26:52;;;;;;;17.43;15.60;;;;;;;25.59;62.08;99064.16;7018308;28;20224;-79
2022/07/21 01:30:15;;;;;;;16.93;15.37;;;;;;;25.39;62.57;99044.25;7034968;28;20198;-79
2022/07/21 01:33:36;;;;;;;17.77;16.07;;;;;;;25.45;62.16;99049.44;7012412;28;20270;-78
2022/07/21 01:36:58;;;;;;;17.97;16.03;;;;;;;25.43;61.86;99056.38;7014436;28;20240;-78
2022/07/21 01:44:01;;;;;;;18.20;16.63;;;;;;;25.29;62.81;99061.75;7008278;28;20224;-79
2022/07/21 01:47:23;;;;;;;18.70;16.90;;;;;;;25.12;63.91;99077.13;7007953;28;20214;-79
2022/07/21 01:50:44;;;;;;;17.80;16.23;;;;;;;25.24;63.87;99078.38;7007562;28;20316;-78
2022/07/21 01:54:07;;;;;;;17.57;15.97;;;;;;;25.34;63.01;99086.56;7008810;28;20775;-79
2022/07/21 01:57:30;;;;;;;19.77;18.07;;;;;;;25.33;62.81;99086.84;7008051;28;20729;-79
2022/07/21 02:00:52;;;;;;;18.37;16.57;;;;;;;25.36;63.03;99098.13;7007549;28;20707;-79
2022/07/21 02:04:13;;;;;;;20.83;19.03;;;;;;;24.78;64.85;99106.69;7005782;28;20314;-79
2022/07/21 02:07:35;;;;;;;22.00;19.80;;;;;;;24.89;64.80;99113.78;7007655;28;20197;-79
2022/07/21 02:10:57;;;;;;;21.30;19.17;;;;;;;24.78;64.25;99112.22;7007451;28;20222;-78
2022/07/21 02:14:19;;;;;;;21.37;19.20;;;;;;;24.78;65.78;99118.53;7007712;28;20260;-79
2022/07/21 02:17:41;;;;;;;20.43;18.53;;;;;;;25.11;64.43;99095.59;7006672;28;20662;-79
2022/07/21 02:21:03;;;;;;;22.37;20.37;;;;;;;24.81;64.17;99104.19;7006893;28;20319;-78
2022/07/21 02:24:24;;;;;;;23.13;20.93;;;;;;;24.18;67.96;99102.44;7006306;28;20222;-79
2022/07/21 02:27:47;;;;;;;22.40;20.30;;;;;;;24.93;66.31;99106.53;7005973;28;20555;-79
2022/07/21 02:31:10;;;;;;;23.17;21.07;;;;;;;24.90;66.21;99101.63;7005832;28;20210;-78
2022/07/21 02:34:31;;;;;;;23.73;21.53;;;;;;;25.28;66.06;99115.34;7005209;28;20311;-78
2022/07/21 02:37:53;;;;;;;19.37;17.57;;;;;;;25.58;63.38;99109.47;7005490;28;20271;-79
2022/07/21 02:41:15;;;;;;;16.87;15.47;;;;;;;25.33;63.85;99118.03;7006050;28;20261;-78
2022/07/21 02:44:36;;;;;;;19.90;18.10;;;;;;;24.94;64.79;99111.78;7005709;28;20253;-78
2022/07/21 02:48:02;;;;;;;18.47;16.60;;;;;;;25.28;64.19;99098.78;7005462;28;20222;-79
2022/07/21 02:51:24;;;;;;;19.00;17.03;;;;;;;25.25;64.34;99102.09;7006201;28;20197;-78
2022/07/21 02:54:45;;;;;;;20.37;18.43;;;;;;;25.28;64.42;99101.53;7006393;28;20228;-79
2022/07/21 02:58:09;;;;;;;19.47;17.67;;;;;;;25.25;63.35;99065.41;7005824;28;20681;-79
2022/07/21 03:01:30;;;;;;;20.47;18.73;;;;;;;25.27;63.54;99101.81;7008956;28;20233;-79
2022/07/21 03:04:53;;;;;;;19.40;17.63;;;;;;;25.60;63.16;99092.59;7004402;28;20217;-79
2022/07/21 03:08:16;;;;;;;19.13;17.53;;;;;;;25.56;63.31;99106.19;7005040;28;20240;-78
2022/07/21 03:11:38;;;;;;;19.20;17.30;;;;;;;25.35;63.84;99098.41;7003921;28;20298;-79
2022/07/21 03:14:59;;;;;;;18.73;17.03;;;;;;;25.37;63.92;99101.72;7004894;28;20279;-78
2022/07/21 03:18:21;;;;;;;18.70;16.90;;;;;;;25.50;63.13;99101.00;7003825;28;20247;-79
2022/07/21 03:21:43;;;;;;;19.63;17.73;;;;;;;25.31;63.79;99113.94;7004526;28;20272;-79
2022/07/21 03:25:06;;;;;;;16.77;15.37;;;;;;;25.32;63.22;99074.16;7003804;28;20271;-78
2022/07/21 03:28:27;;;;;;;17.57;15.73;;;;;;;25.48;63.06;99111.53;7005088;28;20212;-78
2022/07/21 03:31:49;;;;;;;16.27;14.77;;;;;;;25.63;62.49;99097.53;7006844;28;20265;-78
2022/07/21 03:35:12;;;;;;;16.70;15.30;;;;;;;25.31;63.71;99111.97;7030219;28;20260;-79
2022/07/21 03:38:35;;;;;;;16.23;14.67;;;;;;;25.15;63.50;99117.94;7007962;28;20248;-78
2022/07/21 03:41:56;;;;;;;16.33;14.73;;;;;;;25.34;63.06;99122.44;7010295;28;20300;-78
2022/07/21 03:45:18;;;;;;;15.57;14.10;;;;;;;25.25;63.97;99128.91;7008032;28;20339;-78
2022/07/21 03:48:40;;;;;;;16.63;14.93;;;;;;;25.07;63.57;99113.84;7008545;28;20210;-79
2022/07/21 03:52:02;;;;;;;16.77;15.23;;;;;;;24.41;65.69;99131.22;7012827;28;20212;-79
2022/07/21 03:55:24;;;;;;;17.37;14.97;;;;;;;24.69;65.40;99144.28;7014622;28;20294;-80
2022/07/21 03:58:46;;;;;;;18.07;15.33;;;;;;;24.86;65.44;99142.75;7011428;28;20229;-79
2022/07/21 04:02:08;;;;;;;19.03;17.07;;;;;;;25.15;64.73;99140.00;7011159;28;20255;-79
2022/07/21 04:05:35;;;;;;;17.07;15.37;;;;;;;25.32;64.34;99135.69;7011645;28;20275;-79
2022/07/21 04:08:57;;;;;;;17.03;15.03;;;;;;;25.10;64.40;99138.13;7009425;28;20261;-80
2022/07/21 04:12:19;;;;;;;14.57;13.17;;;;;;;25.32;63.91;99156.97;7015320;28;20213;-80
2022/07/21 04:15:41;;;;;;;14.73;13.37;;;;;;;25.05;64.59;99138.16;7009851;28;20230;-80
2022/07/21 04:19:03;;;;;;;14.40;13.03;;;;;;;25.09;64.21;99153.03;7008343;28;20310;-79
2022/07/21 04:22:25;;;;;;;13.93;12.47;;;;;;;25.12;63.98;99159.91;7008990;28;20206;-79
2022/07/21 04:25:46;;;;;;;13.90;12.40;;;;;;;25.08;63.73;99172.66;7014529;28;20282;-80
2022/07/21 04:29:09;;;;;;;13.27;12.07;;;;;;;25.20;63.07;99179.41;7008620;28;20202;-79
2022/07/21 04:32:30;;;;;;;14.30;12.00;;;;;;;25.03;64.21;99178.19;7006181;28;20214;-79
2022/07/21 04:35:52;;;;;;;11.80;10.70;;;;;;;25.24;63.99;99161.19;7006450;28;20233;-78
2022/07/21 04:39:14;;;;;;;12.83;11.27;;;;;;;25.01;62.74;99123.28;7006374;28;20639;-78
2022/07/21 04:42:36;;;;;;;11.67;10.70;;;;;;;25.22;63.18;99155.13;7013270;28;20197;-79
2022/07/21 04:45:59;;;;;;;12.27;11.07;;;;;;;25.64;63.11;99180.09;7013199;28;20234;-79
2022/07/21 04:49:24;;;;;;;12.13;10.93;;;;;;;25.72;61.64;99171.16;7010702;28;20206;-79
2022/07/21 04:52:46;;;;;;;12.63;11.30;;;;;;;25.32;62.30;99176.31;7015323;28;20209;-79
2022/07/21 04:56:08;;;;;;;13.20;11.87;;;;;;;25.44;62.30;99185.00;7007644;28;20308;-80
2022/07/21 04:59:30;;;;;;;12.27;10.83;;;;;;;25.96;61.40;99185.00;7008722;28;20229;-80
2022/07/21 05:02:54;;;;;;;11.77;10.63;;;;;;;26.17;60.41;99175.31;7038047;28;20211;-79
2022/07/21 05:06:16;;;;;;;11.47;10.43;;;;;;;26.11;60.22;99182.88;7035009;28;20252;-80
2022/07/21 05:09:37;;;;;;;10.70;9.70;;;;;;;26.24;60.08;99184.88;7036720;28;20213;-79
2022/07/21 05:12:59;;;;;;;11.97;10.87;;;;;;;25.76;61.59;99176.91;7036988;28;20211;-80
2022/07/21 05:16:21;;;;;;;11.40;10.40;;;;;;;26.01;61.11;99188.50;7036539;28;20240;-78
2022/07/21 05:19:48;;;;;;;11.50;10.50;;;;;;;26.00;61.38;99188.78;7034755;28;20257;-79
2022/07/21 05:23:10;;;;;;;11.97;10.87;;;;;;;26.13;60.69;99168.75;7038470;28;20197;-78
2022/07/21 05:26:32;;;;;;;11.63;10.43;;;;;;;26.19;60.18;99181.38;7046751;28;20225;-78
2022/07/21 05:29:54;;;;;;;14.70;11.77;;;;;;;26.18;60.63;99191.59;7040470;28;20208;-78
2022/07/21 05:33:16;;;;;;;12.97;11.77;;;;;;;26.15;60.52;99170.09;7052102;28;20256;-78
2022/07/21 05:36:40;;;;;;;12.73;11.57;;;;;;;26.09;61.10;99178.75;7053448;28;20278;-79
2022/07/21 05:40:02;;;;;;;11.60;10.40;;;;;;;26.38;60.20;99188.59;7056151;28;20235;-78
2022/07/21 05:43:23;;;;;;;14.23;12.93;;;;;;;26.06;61.32;99184.84;7059627;28;20286;-78
2022/07/21 05:46:45;;;;;;;14.60;13.30;;;;;;;26.06;61.97;99193.16;7036349;28;20262;-79
2022/07/21 05:50:08;;;;;;;15.00;13.70;;;;;;;25.96;62.55;99185.00;7035709;28;20221;-78
2022/07/21 05:53:31;;;;;;;12.43;11.43;;;;;;;26.47;61.26;99195.06;7036874;28;20691;-78
2022/07/21 05:56:53;;;;;;;15.60;14.00;;;;;;;26.45;60.07;99213.09;7036478;28;20208;-78
2022/07/21 06:00:16;;;;;;;16.30;13.50;;;;;;;26.36;60.75;99224.00;7036070;28;20231;-78
2022/07/21 06:03:39;;;;;;;12.77;11.67;;;;;;;26.45;61.35;99221.38;7035670;28;20211;-79
2022/07/21 06:07:00;;;;;;;12.07;10.90;;;;;;;27.14;59.38;99229.75;7036749;28;20190;-79
2022/07/21 06:10:24;;;;;;;12.07;10.87;;;;;;;27.51;57.20;99215.84;7036234;28;20280;-78
2022/07/21 06:13:46;;;;;;;14.57;12.80;;;;;;;27.67;56.59;99233.84;7036184;28;20233;-79
2022/07/21 06:17:08;;;;;;;13.73;12.43;;;;;;;27.80;55.25;99227.50;7036101;28;20703;-78
2022/07/21 06:20:29;;;;;;;15.80;11.73;;;;;;;27.47;55.88;99242.50;7036510;28;20292;-78
2022/07/21 06:23:52;;;;;;;13.20;12.10;;;;;;;27.37;55.66;99234.38;7036408;28;20230;-79
2022/07/21 06:27:15;;;;;;;13.70;12.40;;;;;;;27.41;55.81;99232.63;7035880;28;20211;-79
2022/07/21 06:30:37;;;;;;;14.67;13.27;;;;;;;27.10;56.25;99234.25;7035835;28;20202;-79
2022/07/21 06:33:58;;;;;;;14.77;13.43;;;;;;;26.93;56.32;99220.13;7036629;28;20251;-79
2022/07/21 06:37:21;;;;;;;14.87;13.37;;;;;;;27.13;56.83;99234.47;7035453;28;20671;-79
2022/07/21 06:40:42;;;;;;;15.60;14.20;;;;;;;26.79;57.72;99242.19;7035164;28;20594;-79
2022/07/21 06:44:06;;;;;;;15.37;13.90;;;;;;;26.63;58.93;99248.25;7035595;28;20247;-79
2022/07/21 06:47:27;;;;;;;14.00;12.87;;;;;;;26.88;58.30;99247.88;7034668;28;20205;-79
2022/07/21 06:50:49;;;;;;;13.73;12.43;;;;;;;27.09;57.16;99244.53;7035270;28;20246;-79
2022/07/21 06:54:11;;;;;;;13.47;12.27;;;;;;;27.17;56.71;99243.84;7035997;28;20316;-79
2022/07/21 06:57:32;;;;;;;16.53;14.83;;;;;;;26.51;58.17;99245.91;7036206;28;20202;-79
2022/07/21 07:00:55;;;;;;;16.10;14.40;;;;;;;26.95;55.98;99248.34;7031600;28;20225;-79
2022/07/21 07:04:17;;;;;;;15.03;13.53;;;;;;;26.82;56.62;99249.91;7006042;28;20227;-79
2022/07/21 07:07:39;;;;;;;15.33;13.73;;;;;;;26.96;56.71;99247.22;7007490;28;20260;-79
2022/07/21 07:11:01;;;;;;;15.13;13.60;;;;;;;26.78;56.58;99237.00;7008816;28;20231;-79
2022/07/21 07:14:22;;;;;;;13.30;12.00;;;;;;;26.32;57.69;99234.00;7008460;28;20304;-79
2022/07/21 07:17:45;;;;;;;14.27;12.80;;;;;;;26.38;57.79;99252.19;7006653;28;20225;-78
2022/07/21 07:21:07;;;;;;;15.17;13.77;;;;;;;25.80;57.88;99247.03;7007352;28;20226;-79
2022/07/21 07:24:28;;;;;;;13.70;12.30;;;;;;;26.44;56.70;99252.94;7007284;28;20223;-79
2022/07/21 07:27:51;;;;;;;14.60;13.30;;;;;;;26.17;58.06;99236.13;7006878;28;20203;-79
2022/07/21 07:31:12;;;;;;;14.00;12.70;;;;;;;26.40;56.64;99240.81;7007050;28;20198;-79
2022/07/21 07:34:35;;;;;;;12.57;11.23;;;;;;;27.41;55.88;99260.34;7005556;28;20238;-79
2022/07/21 07:37:57;;;;;;;13.07;11.50;;;;;;;28.49;52.81;99254.97;7005105;28;20220;-79
2022/07/21 07:41:18;;;;;;;12.40;11.10;;;;;;;29.35;49.70;99260.97;7004861;28;20263;-79
2022/07/21 07:44:40;;;;;;;13.20;12.00;;;;;;;29.47;48.53;99238.16;7005302;28;20431;-79
2022/07/21 07:48:01;;;;;;;12.17;10.90;;;;;;;29.24;46.82;99259.59;7005264;28;20216;-80
2022/07/21 07:51:24;;;;;;;11.80;10.63;;;;;;;29.01;47.94;99238.50;7005915;28;20201;-79
2022/07/21 07:54:46;;;;;;;11.33;10.13;;;;;;;28.74;47.48;99251.63;7005528;28;20224;-80
2022/07/21 07:58:07;;;;;;;11.03;10.07;;;;;;;27.13;50.00;99258.59;7004403;28;20771;-79
2022/07/21 08:01:29;;;;;;;9.70;8.80;;;;;;;28.53;50.04;99253.19;7004129;28;20227;-79
2022/07/21 08:04:53;;;;;;;10.23;9.23;;;;;;;29.35;46.25;99247.09;7002158;28;20754;-79
2022/07/21 08:08:17;;;;;;;11.27;9.53;;;;;;;28.71;47.56;99241.16;7004069;28;20640;-80
2022/07/21 08:11:38;;;;;;;11.67;8.63;;;;;;;30.12;46.42;99253.13;7004820;28;20249;-79
2022/07/21 08:15:00;;;;;;;9.33;8.20;;;;;;;31.17;42.82;99247.94;7005650;28;20291;-80
2022/07/21 08:18:21;;;;;;;7.93;7.17;;;;;;;29.49;43.15;99233.94;7005045;28;20209;-80
2022/07/21 08:21:43;;;;;;;8.10;7.40;;;;;;;29.84;44.45;99230.22;7005626;28;20276;-79
2022/07/21 08:25:06;;;;;;;10.10;8.00;;;;;;;30.23;43.79;99246.97;7005526;28;20307;-80
2022/07/21 08:28:28;;;;;;;9.40;7.60;;;;;;;29.86;43.02;99239.09;7005142;28;20243;-79
2022/07/21 08:31:49;;;;;;;8.20;7.40;;;;;;;29.96;43.52;99243.56;7005178;28;20295;-80
2022/07/21 08:35:11;;;;;;;8.23;7.43;;;;;;;30.13;43.55;99244.47;7013909;28;20226;-80
2022/07/21 08:38:33;;;;;;;7.70;7.00;;;;;;;30.24;42.36;99245.00;7005634;28;20864;-79
2022/07/21 08:41:55;;;;;;;7.97;6.97;;;;;;;29.64;43.25;99241.91;7006244;28;20700;-80
2022/07/21 08:45:17;;;;;;;8.90;7.23;;;;;;;29.18;43.32;99243.38;7005616;28;20269;-80
2022/07/21 08:48:39;;;;;;;7.97;7.20;;;;;;;28.90;43.20;99247.38;7005556;28;20755;-79
2022/07/21 08:52:00;;;;;;;8.37;7.57;;;;;;;29.58;43.32;99229.28;7007219;28;20211;-79
2022/07/21 08:55:22;;;;;;;7.43;6.83;;;;;;;30.24;41.25;99237.47;7006330;28;20228;-80
2022/07/21 08:58:45;;;;;;;6.67;6.07;;;;;;;31.21;38.41;99206.34;7005981;28;20296;-79
2022/07/21 09:02:07;;;;;;;6.93;6.20;;;;;;;31.14;39.56;99223.50;7016130;28;20247;-80
2022/07/21 09:05:28;;;;;;;7.20;6.60;;;;;;;31.03;39.73;99222.22;7052805;22;20323;-79
2022/07/21 09:08:53;;;;;;;7.17;6.00;;;;;;;31.11;39.75;99174.03;6945608;28;20225;-79
2022/07/21 09:12:15;;;;;;;7.13;6.40;;;;;;;31.98;38.59;99213.38;6955657;28;20231;-79
2022/07/21 09:15:39;;;;;;;6.90;6.30;;;;;;;31.41;37.44;99155.47;6957434;28;20214;-80
2022/07/21 09:19:01;;;;;;;6.77;6.00;;;;;;;31.59;38.20;99193.28;6957093;28;20353;-80
2022/07/21 09:22:23;;;;;;;6.87;6.17;;;;;;;31.47;38.02;99213.50;6956981;28;20234;-80
2022/07/21 09:25:46;;;;;;;8.70;5.87;;;;;;;32.09;36.86;99225.78;6956945;28;20226;-80
2022/07/21 09:29:11;;;;;;;6.83;5.90;;;;;;;32.99;34.39;99227.06;6956236;28;20205;-80
2022/07/21 09:32:36;;;;;;;6.27;5.67;;;;;;;32.61;35.32;99207.59;6956684;28;20208;-80
2022/07/21 09:36:03;;;;;;;6.77;6.10;;;;;;;32.63;36.81;99210.88;6957104;28;20246;-79
2022/07/21 09:39:46;;;;;;;7.00;6.30;;;;;;;32.21;36.35;99189.63;6956520;28;20206;-80
2022/07/21 09:43:08;;;;;;;6.43;5.93;;;;;;;32.79;37.04;99227.88;6957144;28;20230;-80
2022/07/21 09:46:31;;;;;;;6.77;6.10;;;;;;;32.31;37.80;99230.31;6956664;28;20231;-80
2022/07/21 09:49:54;;;;;;;6.63;6.03;;;;;;;31.09;38.12;99204.19;6956078;28;20214;-79
2022/07/21 09:53:16;;;;;;;6.40;5.80;;;;;;;31.51;35.99;99230.38;6955941;28;20226;-80
2022/07/21 09:56:42;;;;;;;8.43;6.07;;;;;;;31.76;37.09;99226.72;6956618;28;20225;-80
2022/07/21 10:00:06;;;;;;;7.30;5.93;;;;;;;30.26;39.00;99203.75;6955317;28;20207;-80
2022/07/21 10:03:27;;;;;;;6.97;5.57;;;;;;;31.56;38.34;99217.09;6956713;28;20205;-80
2022/07/21 10:06:51;;;;;;;6.20;5.57;;;;;;;32.37;33.73;99215.81;6956076;28;20211;-80
2022/07/21 10:10:13;;;;;;;5.37;4.87;;;;;;;33.52;32.84;99162.75;6955111;28;20215;-79
2022/07/21 10:13:35;;;;;;;5.00;4.60;;;;;;;32.48;33.98;99143.66;6956359;28;20668;-80
2022/07/21 10:16:56;;;;;;;4.83;4.43;;;;;;;33.45;30.45;99216.47;6955697;28;20205;-79
2022/07/21 10:20:24;;;;;;;4.90;4.50;;;;;;;32.71;29.86;99212.78;6954926;28;20207;-80
2022/07/21 10:23:47;;;;;;;4.80;4.27;;;;;;;32.14;32.78;99182.91;6955253;28;20207;-80
2022/07/21 10:27:10;;;;;;;5.00;4.50;;;;;;;32.35;31.68;99169.84;6955205;28;20211;-80
2022/07/21 10:30:38;;;;;;;5.10;4.60;;;;;;;32.23;33.81;99123.09;6954982;28;20209;-79
2022/07/21 10:34:02;;;;;;;6.00;4.73;;;;;;;33.96;29.18;99195.50;6955292;28;20215;-79
2022/07/21 10:37:46;;;;;;;5.27;4.57;;;;;;;34.07;29.78;99183.47;6955434;28;20217;-79
2022/07/21 10:41:36;;;;;;;5.43;4.27;;;;;;;32.56;31.09;99185.47;6948503;28;20356;-79
2022/07/21 10:44:58;;;;;;;6.53;4.67;;;;;;;33.38;29.89;99173.44;6955083;28;20583;-79
2022/07/21 10:48:49;;;;;;;4.97;4.47;;;;;;;32.08;31.91;99175.91;6954999;28;20226;-79
2022/07/21 10:52:49;;;;;;;4.93;4.20;;;;;;;32.76;31.85;99169.88;6953085;28;20295;-79
2022/07/21 10:56:28;;;;;;;5.93;4.60;;;;;;;33.45;30.72;99173.69;6954335;28;20207;-79
2022/07/21 11:00:24;;;;;;;4.70;4.30;;;;;;;33.74;30.51;99168.75;6954307;28;20191;-80
2022/07/21 11:03:46;;;;;;;5.23;4.13;;;;;;;31.93;31.09;99160.53;6954341;28;20207;-80
2022/07/21 11:07:08;;;;;;;4.77;4.37;;;;;;;32.94;31.94;99149.03;6954557;28;20253;-80
2022/07/21 11:10:32;;;;;;;5.90;4.97;;;;;;;31.76;34.54;99154.22;6948976;28;20210;-80
2022/07/21 11:14:09;;;;;;;5.90;5.10;;;;;;;31.33;34.50;99161.88;6954368;28;20213;-79
2022/07/21 11:17:32;;;;;;;5.03;4.53;;;;;;;31.61;33.99;99163.13;6954248;28;20207;-79
2022/07/21 11:21:07;;;;;;;5.40;4.90;;;;;;;30.88;35.79;99058.38;6953438;28;20365;-79
2022/07/21 11:24:28;;;;;;;5.73;5.13;;;;;;;31.05;35.17;99161.41;6936117;28;20230;-79
2022/07/21 11:27:50;;;;;;;5.37;4.87;;;;;;;31.10;34.95;99169.63;6953408;28;20218;-79
2022/07/21 11:31:16;;;;;;;5.47;4.70;;;;;;;30.56;35.46;99139.63;6953411;28;20202;-79
2022/07/21 11:34:42;;;;;;;15.00;5.80;;;;;;;31.87;33.65;99145.16;6953228;28;20218;-79
2022/07/21 11:38:04;;;;;;;7.87;4.90;;;;;;;32.50;33.40;99132.97;6953019;28;20473;-79
2022/07/21 11:41:26;;;;;;;5.67;5.10;;;;;;;32.68;32.50;99146.44;6941359;28;20231;-79
2022/07/21 11:44:49;;;;;;;5.50;5.00;;;;;;;33.17;31.81;99134.34;6925523;28;20227;-79
2022/07/21 11:48:12;;;;;;;4.80;4.30;;;;;;;33.10;32.28;99144.44;6925400;28;20283;-79
2022/07/21 11:51:34;;;;;;;4.87;4.57;;;;;;;32.65;31.64;99138.75;6925836;28;20213;-79
2022/07/21 11:54:57;;;;;;;5.07;4.67;;;;;;;31.96;31.77;99111.63;6925126;28;20215;-79
2022/07/21 11:58:19;;;;;;;5.23;4.70;;;;;;;31.60;32.91;99145.56;6925234;28;20211;-79
2022/07/21 12:01:51;;;;;;;6.53;4.90;;;;;;;31.78;34.53;99152.72;6925684;28;20220;-79
2022/07/21 12:05:15;;;;;;;5.67;5.07;;;;;;;31.73;34.20;99144.53;6925322;28;20228;-79
2022/07/21 12:08:37;;;;;;;5.63;5.00;;;;;;;32.14;32.46;99124.31;6923901;28;20211;-79
2022/07/21 12:11:59;;;;;;;5.37;4.60;;;;;;;32.66;31.24;99120.81;6925844;28;20215;-79
2022/07/21 12:15:23;;;;;;;7.10;4.33;;;;;;;31.77;32.89;99122.41;6925506;28;20216;-79
2022/07/21 12:18:44;;;;;;;6.07;4.80;;;;;;;32.01;33.66;99095.50;6925013;28;20255;-79
2022/07/21 12:22:07;;;;;;;6.03;4.60;;;;;;;32.19;32.84;99097.00;6924992;28;20604;-79
2022/07/21 12:25:34;;;;;;;5.33;3.90;;;;;;;32.40;31.89;99124.97;6925193;28;20215;-80
2022/07/21 12:28:56;;;;;;;4.20;3.70;;;;;;;34.11;28.99;99122.00;6924936;28;20215;-80
2022/07/21 12:32:46;;;;;;;5.60;4.60;;;;;;;34.36;29.37;99092.88;6924521;28;20204;-80
2022/07/21 12:36:12;;;;;;;5.80;4.67;;;;;;;33.56;29.30;99063.84;6925315;28;20230;-79
2022/07/21 12:43:17;;;;;;;4.93;4.43;;;;;;;32.79;31.11;99118.94;6925108;28;20208;-79
2022/07/21 12:46:42;;;;;;;5.23;4.60;;;;;;;32.92;30.56;99123.41;6929985;28;20230;-79
2022/07/21 12:50:07;;;;;;;5.17;3.80;;;;;;;34.38;28.01;99113.72;6929589;28;20719;-79
2022/07/21 12:53:29;;;;;;;4.43;4.03;;;;;;;35.15;27.58;99113.25;6930338;28;20266;-79
2022/07/21 12:56:53;;;;;;;5.60;4.13;;;;;;;34.90;27.61;99100.50;6930371;28;20215;-79
2022/07/21 13:00:15;;;;;;;4.10;3.70;;;;;;;35.56;26.16;99090.31;6930188;28;20215;-79
2022/07/21 13:03:36;;;;;;;5.10;4.37;;;;;;;34.80;27.35;99097.41;6929737;28;20250;-79
2022/07/21 13:06:58;;;;;;;5.60;4.67;;;;;;;33.43;29.58;99111.72;6930855;28;20597;-79
2022/07/21 13:10:20;;;;;;;5.10;4.50;;;;;;;32.98;30.37;99100.50;6930297;28;20571;-79
2022/07/21 13:13:45;;;;;;;6.87;4.90;;;;;;;33.27;30.21;99119.13;6930159;28;20211;-79
2022/07/21 13:17:07;;;;;;;5.00;4.50;;;;;;;31.81;31.42;99109.41;6929935;28;20217;-79
2022/07/21 13:20:33;;;;;;;6.60;4.70;;;;;;;32.35;31.02;99114.00;6929961;28;20208;-79
2022/07/21 13:23:55;;;;;;;5.10;4.57;;;;;;;32.60;30.16;99113.81;6929981;28;20237;-79
2022/07/21 13:27:16;;;;;;;5.60;5.10;;;;;;;33.38;29.53;99095.16;6930054;28;20217;-79
2022/07/21 13:30:43;;;;;;;5.90;4.90;;;;;;;32.82;29.44;98982.19;6929052;28;20212;-79
2022/07/21 13:34:08;;;;;;;5.80;5.20;;;;;;;33.43;28.85;99073.38;6929451;28;20208;-79
2022/07/21 13:37:30;;;;;;;5.27;4.77;;;;;;;33.92;28.08;99060.25;6929578;28;20208;-79
2022/07/21 13:40:56;;;;;;;5.33;4.77;;;;;;;33.35;27.94;98970.03;6928897;28;20560;-79
2022/07/21 13:44:18;;;;;;;5.23;4.70;;;;;;;33.26;28.58;99072.75;6929336;28;20220;-80
2022/07/21 13:47:41;;;;;;;5.30;4.80;;;;;;;33.28;28.56;99076.88;6928852;28;20208;-79
2022/07/21 13:51:03;;;;;;;5.30;4.80;;;;;;;32.97;29.40;99089.69;6928773;28;20206;-80
2022/07/21 13:54:25;;;;;;;8.13;4.73;;;;;;;33.14;29.06;99092.28;6928843;28;20208;-80
2022/07/21 13:57:48;;;;;;;8.87;5.30;;;;;;;32.48;30.51;99069.06;6928567;28;20210;-79
2022/07/21 14:01:11;;;;;;;5.50;5.00;;;;;;;32.76;30.22;99086.91;6928486;28;20257;-79
2022/07/21 14:04:36;;;;;;;7.87;4.60;;;;;;;32.93;30.03;99094.31;6929005;28;20222;-79
2022/07/21 14:07:58;;;;;;;7.07;5.07;;;;;;;31.97;30.62;99051.88;6928592;28;20204;-79
2022/07/21 14:11:22;;;;;;;5.60;5.00;;;;;;;32.00;30.80;99088.28;6928356;28;20217;-80
2022/07/21 14:14:46;;;;;;;7.10;4.50;;;;;;;33.04;29.64;99090.75;6928252;28;20211;-80
2022/07/21 14:18:10;;;;;;;4.80;4.30;;;;;;;32.72;30.46;99021.69;6927749;28;20213;-80
2022/07/21 14:21:34;;;;;;;5.00;4.30;;;;;;;33.32;29.37;99066.59;6928436;28;20763;-79
2022/07/21 14:28:37;;;;;;;4.53;4.13;;;;;;;32.91;29.45;99077.88;6954985;28;20204;-79
2022/07/21 14:31:59;;;;;;;4.67;4.07;;;;;;;33.83;28.78;99077.16;6955581;28;20210;-79
2022/07/21 14:35:22;;;;;;;5.63;4.43;;;;;;;33.97;28.08;99083.19;6955011;28;20215;-80
2022/07/21 14:38:49;;;;;;;5.77;4.70;;;;;;;32.38;30.90;99086.22;6954907;28;20222;-80
2022/07/21 14:42:11;;;;;;;6.60;4.80;;;;;;;32.77;29.66;99051.44;6955503;28;20230;-79
2022/07/21 14:45:32;;;;;;;6.87;4.70;;;;;;;32.47;28.52;98950.19;6955567;28;20238;-79
2022/07/21 14:48:54;;;;;;;5.93;4.77;;;;;;;33.32;28.21;99054.63;6953311;28;20217;-79
2022/07/21 14:52:19;;;;;;;5.27;4.70;;;;;;;34.02;27.44;99076.56;6954589;28;20207;-79
2022/07/21 14:55:43;;;;;;;4.90;4.13;;;;;;;33.79;27.71;99059.41;6954756;28;20349;-79
2022/07/21 14:59:04;;;;;;;5.67;4.27;;;;;;;33.52;28.27;99011.75;6954154;28;20343;-79
2022/07/21 15:02:27;;;;;;;4.60;4.20;;;;;;;34.34;27.00;99028.81;6954350;28;20711;-79
2022/07/21 15:05:48;;;;;;;4.23;3.83;;;;;;;33.51;27.48;99029.69;6954268;28;20222;-79
2022/07/21 15:09:10;;;;;;;6.00;4.20;;;;;;;33.51;27.46;99038.06;6953544;28;20207;-79
2022/07/21 15:12:33;;;;;;;5.20;4.20;;;;;;;33.46;27.28;99055.09;6954152;28;20211;-79
2022/07/21 15:15:55;;;;;;;4.67;4.00;;;;;;;32.77;27.47;99046.66;6954037;28;20234;-79
2022/07/21 15:19:16;;;;;;;4.03;3.63;;;;;;;32.76;28.75;99064.56;6954025;28;20210;-80
2022/07/21 15:22:38;;;;;;;4.97;4.40;;;;;;;32.95;29.21;99061.28;6954210;28;20242;-79
2022/07/21 15:26:00;;;;;;;5.00;4.60;;;;;;;32.04;28.82;98999.16;6953771;28;20207;-79
2022/07/21 15:29:23;;;;;;;4.87;4.47;;;;;;;32.92;28.68;99061.94;6953783;28;20207;-79
2022/07/21 15:32:45;;;;;;;4.70;4.00;;;;;;;32.97;27.83;99054.16;6953716;28;20257;-79
2022/07/21 15:36:07;;;;;;;4.33;3.93;;;;;;;32.79;28.16;99035.94;6953881;28;20206;-79
2022/07/21 15:39:29;;;;;;;4.80;4.30;;;;;;;33.24;28.80;99063.88;6953557;28;20218;-79
2022/07/21 15:42:51;;;;;;;4.30;3.90;;;;;;;33.75;27.85;99066.03;6953801;28;20227;-79
2022/07/21 15:46:14;;;;;;;4.60;4.20;;;;;;;32.58;28.81;99010.03;6954232;28;20232;-79
2022/07/21 15:49:36;;;;;;;4.30;3.90;;;;;;;33.25;28.50;99045.97;6952729;28;20206;-79
2022/07/21 15:52:58;;;;;;;4.07;3.67;;;;;;;32.91;28.74;99015.63;6953231;28;20210;-80
2022/07/21 15:56:20;;;;;;;6.27;3.90;;;;;;;33.12;28.56;99050.69;6953294;28;20581;-79